Página principal
METAR-TAF:

METAR-TAF

Aeroportos :

Garoua, Camarões

latitude: 09-20N, longitude: 013-23E, altura: 242 m

Observação actual do tempo

O boletim foi feito há 7 horas e 36 minutos, às 20:00 UTC
Vento 2 kt de noroeste
Temperatura 34°C
Humidade 53%
Pressão 1010 hPa
Visibilidade 10 km ou mais
sem nuvens abaixo de 1500 metros e sem cumulonimbus

METAR: FKKR 282000Z 32002KT CAVOK 34/23 Q1010 NOSIG

Hora: 04:36 (03:36 UTC)

Previsão

O boletim foi feito há 22 horas e 36 minutos, às 05:00 UTC
Previsão válida de 28 às 06 UTC a 28 às 18 UTC
Vento 6 kt de sul
Visibilidade 10 km ou mais
Poucas nuvensa uma altura de 2300 ft
Temporariamente
de 28 às 08 UTC a 28 às 12 UTC
Visibilidade: 2000 m
Nuvens fragmentadasa uma altura de 1300 ft
Nuvens dispersasa uma altura de 2000 ft, Cumulonimbus.
trovoada, chuva,

TAF: FKKR 280500Z 2806/2818 17006KT 9999 FEW023 TEMPO 2808/2812 2000 TSRA BKN013 SCT020CB

Observações e previsões do tempo de mais de 4000 aeroportos (mensagens METAR e TAF).

As estações disponíveis são os pontos amarelos e vermelhos sobre o mapa.

Mova o rato sobre o mapa para ver o nome da estação.

Depois clique no ponto para visualizar as observações e previsões meteorológicas.

Para alterar o mapa : clique nos botões verdes com uma cruz preta para aumentar o zoom; no botão verde com uma pitada de zoom; ou nas setas verdes para mapas adjacentes.


METAR-TAF: